Time;durP1;ratioP1;P1;durP2;ratioP2;P2;SDS_P1;SDS_P2;PMS_P1;PMS_P2;Temp;Humidity;BMP_temperature;BMP_pressure;BME280_temperature;BME280_humidity;BME280_pressure;Samples;Min_cycle;Max_cycle;Signal;HPM_P1;HPM_P2
2023/08/20 00:00:34;;;;;;;9.95;2.28;;;19.30;99.90;;;;;;5005050;28;20056;-73
2023/08/20 00:03:10;;;;;;;9.07;2.13;;;19.30;99.90;;;;;;4996521;28;20026;-73
2023/08/20 00:05:37;;;;;;;12.43;2.50;;;19.30;99.90;;;;;;5002297;28;20022;-73
2023/08/20 00:08:03;;;;;;;8.90;1.88;;;19.30;99.90;;;;;;5007518;28;20397;-73
2023/08/20 00:10:30;;;;;;;9.00;2.45;;;19.30;99.90;;;;;;4991631;28;20262;-73
2023/08/20 00:12:56;;;;;;;7.30;2.35;;;19.30;99.90;;;;;;4991446;28;20466;-73
2023/08/20 00:15:26;;;;;;;11.13;2.10;;;19.30;99.90;;;;;;4991254;28;20022;-73
2023/08/20 00:17:53;;;;;;;11.05;2.20;;;19.30;99.90;;;;;;5006234;28;20030;-73
2023/08/20 00:20:19;;;;;;;11.63;2.03;;;19.30;99.90;;;;;;4981435;28;20021;-73
2023/08/20 00:22:45;;;;;;;8.63;2.13;;;19.40;99.90;;;;;;4991709;28;20026;-73
2023/08/20 00:25:12;;;;;;;10.70;2.22;;;19.40;99.90;;;;;;4991381;28;20026;-73
2023/08/20 00:27:39;;;;;;;11.68;1.90;;;19.40;99.90;;;;;;4991369;28;20029;-73
2023/08/20 00:30:05;;;;;;;12.50;2.40;;;19.40;99.90;;;;;;4991888;28;20029;-73
2023/08/20 00:32:31;;;;;;;10.32;2.30;;;19.40;99.90;;;;;;4989927;28;20057;-73
2023/08/20 00:34:57;;;;;;;16.00;2.40;;;19.40;99.90;;;;;;4990858;28;20034;-73
2023/08/20 00:37:23;;;;;;;11.65;2.20;;;19.40;99.90;;;;;;4991070;28;20645;-73
2023/08/20 00:39:48;;;;;;;8.55;1.90;;;19.30;99.90;;;;;;5003842;28;20041;-73
2023/08/20 00:42:14;;;;;;;10.55;2.13;;;19.30;99.90;;;;;;4991290;28;20104;-73
2023/08/20 00:44:46;;;;;;;7.03;1.85;;;19.30;99.90;;;;;;4991317;28;20149;-73
2023/08/20 00:47:14;;;;;;;10.43;2.40;;;19.30;99.90;;;;;;4995070;28;20030;-73
2023/08/20 00:49:41;;;;;;;13.15;2.75;;;19.30;99.90;;;;;;4993338;28;20101;-73
2023/08/20 00:52:09;;;;;;;9.75;2.10;;;19.30;99.90;;;;;;4996160;28;20026;-73
2023/08/20 00:54:35;;;;;;;11.10;2.28;;;19.30;99.90;;;;;;4991081;28;20034;-74
2023/08/20 00:57:02;;;;;;;10.02;2.22;;;19.40;99.90;;;;;;4993028;28;20392;-74
2023/08/20 00:59:30;;;;;;;16.45;2.45;;;19.40;99.90;;;;;;5001418;28;20482;-74
2023/08/20 01:01:55;;;;;;;14.63;2.05;;;19.30;99.90;;;;;;4990919;28;20690;-74
2023/08/20 01:04:21;;;;;;;16.08;2.25;;;19.30;99.90;;;;;;5000665;28;20101;-74
2023/08/20 01:07:01;;;;;;;11.75;2.35;;;19.40;99.90;;;;;;4994805;28;20547;-74
2023/08/20 01:09:49;;;;;;;10.65;1.85;;;19.40;99.90;;;;;;5001975;28;20026;-74
2023/08/20 01:12:17;;;;;;;12.00;2.13;;;19.40;99.90;;;;;;4995159;28;20026;-74
2023/08/20 01:14:43;;;;;;;12.25;2.15;;;19.40;99.90;;;;;;4993758;28;20027;-74
2023/08/20 01:17:08;;;;;;;10.52;2.10;;;19.40;99.90;;;;;;4994875;28;20028;-74
2023/08/20 01:19:34;;;;;;;9.98;2.20;;;19.40;99.90;;;;;;5004120;28;20416;-74
2023/08/20 01:22:33;;;;;;;9.57;2.08;;;19.40;99.90;;;;;;4993977;28;20035;-74
2023/08/20 01:25:10;;;;;;;13.73;2.63;;;19.40;99.90;;;;;;4994411;28;20041;-74
2023/08/20 01:27:41;;;;;;;15.10;2.70;;;19.40;99.90;;;;;;4994200;28;20026;-74
2023/08/20 01:30:08;;;;;;;16.65;2.63;;;19.40;99.90;;;;;;4994720;28;20359;-74
2023/08/20 01:32:36;;;;;;;10.90;2.15;;;19.40;99.90;;;;;;4994171;28;20513;-74
2023/08/20 01:35:02;;;;;;;12.38;2.50;;;19.30;99.90;;;;;;5006623;28;20014;-74
2023/08/20 01:37:28;;;;;;;14.30;2.38;;;19.30;99.90;;;;;;4994766;28;20072;-74
2023/08/20 01:39:54;;;;;;;15.02;2.55;;;19.30;99.90;;;;;;4998759;28;20063;-74
2023/08/20 01:42:19;;;;;;;13.02;2.47;;;19.20;99.90;;;;;;4995448;28;20022;-74
2023/08/20 01:44:45;;;;;;;10.40;2.60;;;19.20;99.90;;;;;;4997527;28;20093;-74
2023/08/20 01:47:10;;;;;;;9.52;2.42;;;19.20;99.90;;;;;;4994582;28;20015;-74
2023/08/20 01:49:36;;;;;;;12.50;2.78;;;19.20;99.90;;;;;;4995464;28;20506;-74
2023/08/20 01:52:02;;;;;;;10.65;2.33;;;19.20;99.90;;;;;;5004987;28;20026;-74
2023/08/20 01:54:28;;;;;;;13.10;2.67;;;19.20;99.90;;;;;;4997194;28;20084;-74
2023/08/20 01:56:54;;;;;;;9.05;1.85;;;19.20;99.90;;;;;;4994074;28;20029;-74
2023/08/20 01:59:22;;;;;;;7.82;2.03;;;19.10;99.90;;;;;;4993496;28;20124;-74
2023/08/20 02:01:47;;;;;;;11.35;2.15;;;19.10;99.90;;;;;;4993678;28;20022;-74
2023/08/20 02:04:13;;;;;;;11.80;2.60;;;19.10;99.90;;;;;;5007115;28;20477;-74
2023/08/20 02:06:38;;;;;;;12.90;2.78;;;19.00;99.90;;;;;;4993630;28;20054;-74
2023/08/20 02:09:04;;;;;;;15.80;2.58;;;19.00;99.90;;;;;;4993389;28;20023;-74
2023/08/20 02:11:32;;;;;;;17.98;2.33;;;19.00;99.90;;;;;;5007440;28;20054;-74
2023/08/20 02:13:58;;;;;;;10.73;2.25;;;19.00;99.90;;;;;;5004496;28;20014;-74
2023/08/20 02:16:24;;;;;;;14.93;2.50;;;19.00;99.90;;;;;;4997030;28;20022;-74
2023/08/20 02:18:49;;;;;;;12.07;2.97;;;19.00;99.90;;;;;;4992797;28;20019;-74
2023/08/20 02:21:15;;;;;;;13.02;2.53;;;18.90;99.90;;;;;;4993989;28;20026;-74
2023/08/20 02:23:40;;;;;;;9.98;2.17;;;18.90;99.90;;;;;;5011212;28;20394;-74
2023/08/20 02:26:06;;;;;;;14.15;2.88;;;18.90;99.90;;;;;;4993382;28;20105;-74
2023/08/20 02:28:32;;;;;;;11.75;2.65;;;18.90;99.90;;;;;;4993420;28;20313;-74
2023/08/20 02:30:59;;;;;;;10.55;2.22;;;18.90;99.90;;;;;;4993559;28;20097;-74
2023/08/20 02:33:25;;;;;;;13.90;2.60;;;18.80;99.90;;;;;;4993099;28;20101;-74
2023/08/20 02:35:51;;;;;;;12.68;2.42;;;18.80;99.90;;;;;;4993346;28;20105;-74
2023/08/20 02:38:16;;;;;;;14.93;2.75;;;18.80;99.90;;;;;;4996266;28;20027;-74
2023/08/20 02:40:42;;;;;;;11.43;2.45;;;18.80;99.90;;;;;;4994424;28;20034;-74
2023/08/20 02:43:08;;;;;;;13.40;2.33;;;18.80;99.90;;;;;;4996592;28;20382;-74
2023/08/20 02:45:40;;;;;;;15.35;2.80;;;18.80;99.90;;;;;;4995988;28;20033;-74
2023/08/20 02:48:06;;;;;;;13.93;2.70;;;18.80;99.90;;;;;;4993549;28;20031;-74
2023/08/20 02:50:32;;;;;;;11.05;2.60;;;18.70;99.90;;;;;;4993261;28;20460;-74
2023/08/20 02:52:57;;;;;;;8.73;2.30;;;18.70;99.90;;;;;;4993029;28;20027;-74
2023/08/20 02:55:23;;;;;;;17.70;3.05;;;18.70;99.90;;;;;;4995025;28;20022;-74
2023/08/20 02:57:48;;;;;;;12.35;2.60;;;18.70;99.90;;;;;;4992991;28;20023;-74
2023/08/20 03:00:14;;;;;;;14.38;2.40;;;18.70;99.90;;;;;;4995816;28;20073;-74
2023/08/20 03:02:41;;;;;;;11.27;2.50;;;18.60;99.90;;;;;;4997208;28;20037;-74
2023/08/20 03:05:08;;;;;;;10.95;2.70;;;18.60;99.90;;;;;;4992704;28;20026;-74
2023/08/20 03:07:34;;;;;;;13.80;2.55;;;18.60;99.90;;;;;;4992689;28;20029;-74
2023/08/20 03:10:02;;;;;;;13.23;2.72;;;18.60;99.90;;;;;;5017739;28;20029;-74
2023/08/20 03:12:28;;;;;;;11.88;2.92;;;18.60;99.90;;;;;;4997179;28;20026;-74
2023/08/20 03:14:54;;;;;;;11.70;2.80;;;18.60;99.90;;;;;;4995713;28;20037;-74
2023/08/20 03:17:19;;;;;;;19.65;3.17;;;18.60;99.90;;;;;;5009079;28;20417;-74
2023/08/20 03:19:59;;;;;;;16.98;3.17;;;18.50;99.90;;;;;;4993499;28;20030;-74
2023/08/20 03:22:26;;;;;;;10.10;2.30;;;18.50;99.90;;;;;;4992326;28;20026;-74
2023/08/20 03:24:53;;;;;;;12.10;3.28;;;18.50;99.90;;;;;;5005332;28;20030;-74
2023/08/20 03:27:19;;;;;;;12.75;2.70;;;18.40;99.90;;;;;;4993294;28;20429;-74
2023/08/20 03:29:45;;;;;;;12.60;3.13;;;18.40;99.90;;;;;;4992404;28;20022;-74
2023/08/20 03:32:11;;;;;;;14.70;3.30;;;18.40;99.90;;;;;;4991637;28;20023;-78
2023/08/20 03:34:37;;;;;;;14.25;3.00;;;18.40;99.90;;;;;;4992374;28;20034;-74
2023/08/20 03:37:03;;;;;;;11.30;2.92;;;18.40;99.90;;;;;;4992052;28;20019;-74
2023/08/20 03:39:30;;;;;;;12.15;2.88;;;18.40;99.90;;;;;;4992175;28;20034;-74
2023/08/20 03:41:57;;;;;;;10.13;2.65;;;18.30;99.90;;;;;;4988099;28;20029;-74
2023/08/20 03:44:22;;;;;;;12.50;3.05;;;18.30;99.90;;;;;;4997487;28;20022;-74
2023/08/20 03:46:48;;;;;;;11.63;2.95;;;18.20;99.90;;;;;;4987798;28;20390;-73
2023/08/20 03:49:14;;;;;;;15.85;3.20;;;18.20;99.90;;;;;;4996210;28;20026;-74
2023/08/20 03:51:40;;;;;;;12.50;3.00;;;18.20;99.90;;;;;;5000097;28;20049;-74
2023/08/20 03:54:06;;;;;;;13.80;3.35;;;18.20;99.90;;;;;;4985658;28;20019;-74
2023/08/20 03:56:32;;;;;;;19.00;3.30;;;18.20;99.90;;;;;;4983904;28;20153;-74
2023/08/20 03:58:57;;;;;;;11.68;3.22;;;18.10;99.90;;;;;;4991189;28;20490;-74
2023/08/20 04:01:23;;;;;;;16.48;3.10;;;18.10;99.90;;;;;;4992358;28;20014;-74
2023/08/20 04:03:49;;;;;;;11.07;2.83;;;18.10;99.90;;;;;;4991909;28;20018;-74
2023/08/20 04:06:14;;;;;;;10.68;3.30;;;18.10;99.90;;;;;;4978468;28;20382;-74
2023/08/20 04:08:40;;;;;;;10.63;3.00;;;18.10;99.90;;;;;;4991350;28;20478;-74
2023/08/20 04:11:06;;;;;;;10.95;3.00;;;18.10;99.90;;;;;;4991912;28;20496;-74
2023/08/20 04:13:31;;;;;;;12.27;3.15;;;18.10;99.90;;;;;;5004753;28;20022;-74
2023/08/20 04:15:57;;;;;;;19.70;3.67;;;18.00;99.90;;;;;;4995884;28;20023;-74
2023/08/20 04:18:23;;;;;;;12.95;3.47;;;18.00;99.90;;;;;;4991335;28;20100;-74
2023/08/20 04:20:52;;;;;;;15.02;3.00;;;18.00;99.90;;;;;;4991452;28;20026;-74
2023/08/20 04:23:19;;;;;;;13.18;3.42;;;18.00;99.90;;;;;;4983748;28;20026;-74
2023/08/20 04:25:45;;;;;;;15.70;3.60;;;18.00;99.90;;;;;;4999257;28;20488;-74
2023/08/20 04:28:12;;;;;;;13.25;3.50;;;17.90;99.90;;;;;;4992196;28;20026;-74
2023/08/20 04:30:37;;;;;;;13.68;3.60;;;17.90;99.90;;;;;;4993425;28;20025;-74
2023/08/20 04:33:03;;;;;;;12.95;3.80;;;17.90;99.90;;;;;;4993042;28;20018;-74
2023/08/20 04:35:29;;;;;;;8.25;3.17;;;17.90;99.90;;;;;;4993360;28;20117;-73
2023/08/20 04:37:54;;;;;;;13.45;3.75;;;17.80;99.90;;;;;;4994515;28;20101;-74
2023/08/20 04:40:20;;;;;;;16.58;3.83;;;17.80;99.90;;;;;;5004066;28;20105;-74
2023/08/20 04:42:46;;;;;;;13.85;3.53;;;17.80;99.90;;;;;;4991365;28;20026;-74
2023/08/20 04:45:12;;;;;;;11.93;3.45;;;17.80;99.90;;;;;;4991289;28;20125;-74
2023/08/20 04:47:38;;;;;;;15.15;3.67;;;17.80;99.90;;;;;;4991387;28;20026;-74
2023/08/20 04:50:06;;;;;;;17.58;3.92;;;17.80;99.90;;;;;;4991249;28;20019;-74
2023/08/20 04:52:33;;;;;;;15.90;3.75;;;17.80;99.90;;;;;;4991152;28;20027;-74
2023/08/20 04:54:59;;;;;;;18.35;4.38;;;17.80;99.90;;;;;;4991027;28;20026;-74
2023/08/20 04:57:24;;;;;;;20.90;4.43;;;17.80;99.90;;;;;;4990573;28;20022;-74
2023/08/20 04:59:50;;;;;;;14.85;3.92;;;17.80;99.90;;;;;;4990957;28;20108;-74
2023/08/20 05:02:16;;;;;;;14.05;3.70;;;17.80;99.90;;;;;;4990911;28;20018;-74
2023/08/20 05:04:41;;;;;;;15.18;4.40;;;17.80;99.90;;;;;;4995963;28;20018;-74
2023/08/20 05:07:07;;;;;;;17.95;4.50;;;17.80;99.90;;;;;;4991132;28;20026;-74
2023/08/20 05:09:33;;;;;;;16.38;4.55;;;17.80;99.90;;;;;;4991245;28;20026;-73
2023/08/20 05:11:58;;;;;;;12.52;4.20;;;17.80;99.90;;;;;;4990821;28;20098;-74
2023/08/20 05:14:24;;;;;;;17.67;4.18;;;17.80;99.90;;;;;;4990943;28;20015;-74
2023/08/20 05:16:49;;;;;;;15.80;4.63;;;17.80;99.90;;;;;;4996500;28;20026;-74
2023/08/20 05:19:15;;;;;;;13.95;4.05;;;17.80;99.90;;;;;;4995537;28;20033;-74
2023/08/20 05:21:41;;;;;;;14.02;4.50;;;17.80;99.90;;;;;;4990582;28;20023;-74
2023/08/20 05:24:06;;;;;;;16.08;4.38;;;17.80;99.90;;;;;;4990935;28;20022;-74
2023/08/20 05:26:34;;;;;;;16.73;4.70;;;17.70;99.90;;;;;;4990513;28;20474;-74
2023/08/20 05:29:00;;;;;;;12.55;4.05;;;17.80;99.90;;;;;;4990873;28;20413;-74
2023/08/20 05:31:25;;;;;;;13.23;4.60;;;17.80;99.90;;;;;;4990664;28;20034;-74
2023/08/20 05:33:51;;;;;;;17.27;4.38;;;17.80;99.90;;;;;;4990864;28;20035;-74
2023/08/20 05:36:16;;;;;;;19.67;4.63;;;17.80;99.90;;;;;;4989395;28;20445;-74
2023/08/20 05:38:42;;;;;;;13.40;4.68;;;17.80;99.90;;;;;;4990812;28;20054;-73
2023/08/20 05:41:08;;;;;;;15.30;4.45;;;17.80;99.90;;;;;;4990901;28;20061;-74
2023/08/20 05:43:36;;;;;;;17.05;5.35;;;17.80;99.90;;;;;;5000895;28;20046;-74
2023/08/20 05:46:02;;;;;;;18.23;5.05;;;17.80;99.90;;;;;;4990874;28;20022;-74
2023/08/20 05:48:28;;;;;;;15.77;4.70;;;17.90;99.90;;;;;;4984128;28;20031;-74
2023/08/20 05:50:53;;;;;;;17.90;4.80;;;17.90;99.90;;;;;;4976381;28;20029;-73
2023/08/20 05:53:19;;;;;;;14.73;4.78;;;17.90;99.90;;;;;;4990486;28;20053;-74
2023/08/20 05:55:45;;;;;;;17.67;4.82;;;17.90;99.90;;;;;;4995663;28;20019;-74
2023/08/20 05:58:11;;;;;;;15.30;4.90;;;17.90;99.90;;;;;;4993793;28;20573;-73
2023/08/20 06:00:36;;;;;;;19.23;5.22;;;17.90;99.90;;;;;;4995610;28;20409;-74
2023/08/20 06:03:02;;;;;;;17.77;5.05;;;18.00;99.90;;;;;;4993806;28;20029;-73
2023/08/20 06:05:28;;;;;;;18.25;4.72;;;18.00;99.90;;;;;;5004230;28;20026;-73
2023/08/20 06:07:53;;;;;;;22.02;4.97;;;18.00;99.90;;;;;;4993629;28;20045;-74
2023/08/20 06:10:19;;;;;;;18.73;4.63;;;18.00;99.90;;;;;;5004800;28;20384;-73
2023/08/20 06:12:44;;;;;;;16.42;4.68;;;18.10;99.90;;;;;;4998100;28;20029;-73
2023/08/20 06:15:10;;;;;;;16.92;4.90;;;18.10;99.90;;;;;;5013793;28;20022;-73
2023/08/20 06:17:36;;;;;;;14.52;4.80;;;18.10;99.90;;;;;;4996453;28;20387;-73
2023/08/20 06:20:05;;;;;;;20.75;4.78;;;18.20;99.90;;;;;;4996134;28;20116;-73
2023/08/20 06:22:31;;;;;;;16.40;4.57;;;18.20;99.90;;;;;;4993862;28;20015;-73
2023/08/20 06:24:57;;;;;;;15.55;4.60;;;18.20;99.90;;;;;;4989758;28;20022;-73
2023/08/20 06:27:23;;;;;;;19.23;4.60;;;18.30;99.90;;;;;;5003198;28;20528;-73
2023/08/20 06:29:49;;;;;;;19.13;5.05;;;18.40;99.90;;;;;;5003719;28;20089;-73
2023/08/20 06:32:14;;;;;;;22.35;5.15;;;18.30;99.90;;;;;;4993921;28;20102;-73
2023/08/20 06:34:40;;;;;;;17.23;5.18;;;18.40;99.90;;;;;;4994813;28;20118;-74
2023/08/20 06:37:05;;;;;;;19.17;4.75;;;18.50;99.90;;;;;;4997894;28;20450;-73
2023/08/20 06:39:31;;;;;;;17.67;5.20;;;18.50;99.90;;;;;;5011311;28;20038;-74
2023/08/20 06:41:56;;;;;;;14.60;4.60;;;18.60;99.90;;;;;;5010173;28;20022;-73
2023/08/20 06:44:22;;;;;;;21.17;4.10;;;18.60;99.90;;;;;;4994051;28;20022;-73
2023/08/20 06:46:48;;;;;;;17.58;4.50;;;18.60;99.90;;;;;;4993839;28;20026;-74
2023/08/20 06:49:13;;;;;;;18.77;4.30;;;18.70;99.90;;;;;;4993238;28;20025;-73
2023/08/20 06:51:39;;;;;;;20.20;4.45;;;18.70;99.90;;;;;;4993637;28;20030;-74
2023/08/20 06:54:06;;;;;;;18.15;3.90;;;18.80;99.90;;;;;;4994856;28;20014;-74
2023/08/20 06:56:32;;;;;;;17.70;3.83;;;18.90;99.90;;;;;;5003668;28;20014;-74
2023/08/20 06:58:58;;;;;;;19.80;4.05;;;18.90;99.90;;;;;;4993472;28;20405;-74
2023/08/20 07:01:23;;;;;;;18.95;3.92;;;19.00;99.90;;;;;;4992983;28;20038;-73
2023/08/20 07:03:49;;;;;;;16.92;3.80;;;19.00;99.90;;;;;;5012662;28;20604;-73
2023/08/20 07:06:16;;;;;;;16.50;3.55;;;19.10;99.90;;;;;;4989931;28;20106;-75
2023/08/20 07:08:42;;;;;;;19.85;3.70;;;19.20;99.90;;;;;;4993403;28;20034;-75
2023/08/20 07:11:08;;;;;;;13.27;3.15;;;19.20;99.90;;;;;;4988288;28;20021;-76
2023/08/20 07:13:33;;;;;;;12.75;3.38;;;19.20;99.90;;;;;;4994193;28;20018;-76
2023/08/20 07:16:00;;;;;;;19.70;3.72;;;19.30;99.90;;;;;;4993406;28;20023;-75
2023/08/20 07:18:25;;;;;;;13.40;3.30;;;19.40;99.90;;;;;;4993345;28;20022;-75
2023/08/20 07:20:52;;;;;;;12.85;2.90;;;19.40;99.90;;;;;;4994332;28;20039;-75
2023/08/20 07:23:18;;;;;;;17.15;3.58;;;19.50;99.90;;;;;;4994530;28;20049;-75
2023/08/20 07:25:44;;;;;;;12.50;3.20;;;19.50;99.90;;;;;;4998153;28;20026;-75
2023/08/20 07:28:11;;;;;;;14.98;3.08;;;19.60;99.90;;;;;;5000816;28;20125;-75
2023/08/20 07:30:37;;;;;;;16.13;3.53;;;19.70;99.90;;;;;;4996014;28;20073;-75
2023/08/20 07:33:03;;;;;;;19.17;3.10;;;19.80;99.90;;;;;;4995000;28;20045;-75
2023/08/20 07:35:29;;;;;;;15.43;3.35;;;19.90;99.90;;;;;;4991880;28;20022;-75
2023/08/20 07:37:55;;;;;;;19.30;2.90;;;20.00;99.90;;;;;;4993218;28;20026;-75
2023/08/20 07:40:20;;;;;;;11.82;3.00;;;20.10;99.90;;;;;;4993889;28;20022;-75
2023/08/20 07:42:46;;;;;;;19.35;3.45;;;20.20;99.90;;;;;;4992602;28;20026;-75
2023/08/20 07:45:13;;;;;;;13.88;2.83;;;20.30;99.90;;;;;;5002695;28;20034;-75
2023/08/20 07:47:39;;;;;;;11.32;3.00;;;20.40;99.90;;;;;;4991953;28;20035;-75
2023/08/20 07:50:05;;;;;;;15.45;2.72;;;20.50;99.90;;;;;;5004131;28;20491;-75
2023/08/20 07:52:34;;;;;;;11.60;3.03;;;20.60;99.90;;;;;;4993609;28;20269;-75
2023/08/20 07:55:00;;;;;;;13.82;3.00;;;20.80;99.90;;;;;;4993307;28;20054;-75
2023/08/20 07:57:26;;;;;;;13.48;3.08;;;20.90;99.90;;;;;;4995083;28;20061;-75
2023/08/20 07:59:51;;;;;;;14.82;2.42;;;21.00;99.90;;;;;;4996319;28;20074;-75
2023/08/20 08:02:17;;;;;;;15.93;3.20;;;21.20;99.90;;;;;;5003286;28;20064;-75
2023/08/20 08:04:43;;;;;;;13.02;2.85;;;21.30;99.90;;;;;;4998184;28;20026;-75
2023/08/20 08:07:10;;;;;;;13.38;2.63;;;21.40;99.90;;;;;;4994954;28;20065;-75
2023/08/20 08:09:36;;;;;;;12.40;2.67;;;21.60;99.90;;;;;;4994362;28;20038;-75
2023/08/20 08:12:02;;;;;;;11.70;2.42;;;21.80;99.90;;;;;;4992572;28;20023;-75
2023/08/20 08:14:27;;;;;;;10.52;2.00;;;21.90;99.90;;;;;;4998394;28;20026;-75
2023/08/20 08:16:53;;;;;;;11.75;2.45;;;22.00;99.90;;;;;;4998338;28;20108;-75
2023/08/20 08:19:20;;;;;;;13.18;2.30;;;22.00;99.90;;;;;;4995533;28;20364;-75
2023/08/20 08:21:47;;;;;;;10.55;2.15;;;22.10;99.90;;;;;;5001340;28;20069;-75
2023/08/20 08:24:13;;;;;;;12.70;2.63;;;22.20;99.90;;;;;;5006284;28;20396;-75
2023/08/20 08:26:42;;;;;;;12.73;2.80;;;22.30;99.90;;;;;;5002961;28;20345;-75
2023/08/20 08:29:08;;;;;;;44.95;4.88;;;22.40;99.90;;;;;;5008880;28;20032;-76
2023/08/20 08:31:34;;;;;;;12.70;2.40;;;22.60;99.90;;;;;;4995637;28;20014;-75
2023/08/20 08:34:01;;;;;;;13.88;2.35;;;22.80;99.90;;;;;;4993048;28;20476;-75
2023/08/20 08:36:27;;;;;;;11.57;2.28;;;23.00;99.90;;;;;;4991269;28;20273;-74
2023/08/20 08:38:53;;;;;;;8.80;2.10;;;23.10;99.90;;;;;;4994976;28;20073;-76
2023/08/20 08:41:25;;;;;;;11.82;2.40;;;23.10;99.90;;;;;;4992352;28;20033;-76
2023/08/20 08:43:51;;;;;;;13.82;2.78;;;23.30;99.90;;;;;;4993318;28;20057;-76
2023/08/20 08:46:17;;;;;;;11.45;2.10;;;23.40;99.90;;;;;;4994612;28;20046;-76
2023/08/20 08:48:44;;;;;;;13.32;2.30;;;23.50;99.90;;;;;;4995095;28;20092;-76
2023/08/20 08:51:11;;;;;;;6.97;1.90;;;23.60;99.90;;;;;;5001326;28;20014;-76
2023/08/20 08:53:37;;;;;;;11.35;2.03;;;23.70;99.90;;;;;;5003447;28;20037;-73
2023/08/20 08:56:03;;;;;;;10.27;1.70;;;23.70;99.90;;;;;;4999802;28;20057;-73
2023/08/20 08:58:29;;;;;;;12.77;2.05;;;23.70;99.90;;;;;;5007854;28;20023;-75
2023/08/20 09:00:55;;;;;;;11.82;2.33;;;23.70;99.90;;;;;;5002041;28;20054;-75
2023/08/20 09:03:21;;;;;;;9.90;2.28;;;23.80;99.90;;;;;;4997400;28;20022;-75
2023/08/20 09:05:54;;;;;;;13.23;2.33;;;24.00;99.90;;;;;;4998526;28;20480;-75
2023/08/20 09:08:31;;;;;;;11.38;2.00;;;24.20;99.90;;;;;;4995886;28;20019;-74
2023/08/20 09:10:58;;;;;;;9.02;1.67;;;24.20;99.90;;;;;;4992229;28;20110;-74
2023/08/20 09:13:26;;;;;;;9.30;1.90;;;24.30;99.90;;;;;;5002929;28;20097;-74
2023/08/20 09:15:53;;;;;;;10.68;2.00;;;24.40;99.90;;;;;;5004590;28;20026;-74
2023/08/20 09:18:19;;;;;;;10.50;1.75;;;24.60;99.90;;;;;;5002621;28;20370;-74
2023/08/20 09:20:44;;;;;;;12.82;2.13;;;24.70;99.90;;;;;;5007328;28;20080;-74
2023/08/20 09:23:13;;;;;;;9.27;1.77;;;24.70;99.90;;;;;;5004659;28;20069;-75
2023/08/20 09:25:40;;;;;;;7.05;1.65;;;24.80;99.90;;;;;;5002809;28;20037;-75
2023/08/20 09:28:06;;;;;;;8.10;2.13;;;24.80;99.90;;;;;;5006026;28;20428;-75
2023/08/20 09:30:32;;;;;;;10.70;1.70;;;24.90;99.90;;;;;;5007738;28;20026;-73
2023/08/20 09:33:11;;;;;;;7.97;1.88;;;25.00;99.90;;;;;;4996354;28;20019;-74
2023/08/20 09:35:37;;;;;;;9.52;2.40;;;25.10;99.90;;;;;;4996562;28;20546;-74
2023/08/20 09:38:04;;;;;;;7.63;1.85;;;25.20;99.90;;;;;;5003108;28;20053;-73
2023/08/20 09:40:30;;;;;;;9.15;1.77;;;25.30;99.90;;;;;;5005616;28;20018;-74
2023/08/20 09:42:56;;;;;;;12.40;3.03;;;25.40;99.90;;;;;;4994654;28;20026;-74
2023/08/20 09:45:25;;;;;;;12.68;3.45;;;25.40;99.90;;;;;;4994456;28;20029;-73
2023/08/20 09:47:55;;;;;;;6.35;1.42;;;25.40;99.90;;;;;;4997876;28;20033;-73
2023/08/20 09:50:22;;;;;;;6.80;1.50;;;25.50;99.90;;;;;;5004599;28;20041;-73
2023/08/20 09:52:58;;;;;;;7.47;1.83;;;25.60;99.90;;;;;;5003720;28;20029;-76
2023/08/20 09:55:35;;;;;;;9.00;1.38;;;25.70;99.90;;;;;;4991414;28;20069;-75
2023/08/20 09:58:03;;;;;;;6.55;1.50;;;25.70;99.90;;;;;;4993962;28;20062;-75
2023/08/20 10:00:28;;;;;;;5.20;1.40;;;25.70;99.90;;;;;;4996607;28;20282;-75
2023/08/20 10:02:56;;;;;;;6.45;1.27;;;25.70;99.90;;;;;;5009395;28;20029;-75
2023/08/20 10:05:23;;;;;;;8.13;1.63;;;25.70;99.90;;;;;;5001810;28;20481;-76
2023/08/20 10:07:49;;;;;;;9.13;1.52;;;25.70;99.90;;;;;;5009581;28;20079;-76
2023/08/20 10:10:16;;;;;;;6.55;1.30;;;25.80;99.90;;;;;;5003256;28;20098;-78
2023/08/20 10:12:44;;;;;;;5.88;1.33;;;25.90;99.90;;;;;;5008261;28;20033;-79
2023/08/20 10:15:12;;;;;;;6.57;1.30;;;26.00;99.90;;;;;;4999830;28;20027;-78
2023/08/20 10:17:42;;;;;;;6.45;1.60;;;26.20;99.90;;;;;;4998874;28;20392;-77
2023/08/20 10:20:10;;;;;;;6.78;1.55;;;26.30;99.90;;;;;;5003821;28;20053;-77
2023/08/20 10:22:49;;;;;;;4.05;1.27;;;26.40;99.90;;;;;;4998574;28;20108;-78
2023/08/20 10:25:25;;;;;;;7.93;1.30;;;26.50;99.90;;;;;;5016802;28;20034;-79
2023/08/20 10:27:52;;;;;;;10.07;1.50;;;26.50;99.90;;;;;;5013850;28;20144;-79
2023/08/20 10:30:25;;;;;;;8.85;1.40;;;26.50;99.90;;;;;;5014624;28;20077;-80
2023/08/20 10:32:52;;;;;;;6.43;1.45;;;26.60;99.90;;;;;;5002974;28;20026;-81
2023/08/20 10:35:49;;;;;;;6.05;1.55;;;26.80;99.90;;;;;;4997296;28;20019;-80
2023/08/20 10:38:17;;;;;;;4.82;1.23;;;27.00;99.90;;;;;;5003774;28;20034;-80
2023/08/20 10:40:49;;;;;;;5.80;1.10;;;26.80;99.90;;;;;;5019957;28;20050;-80
2023/08/20 10:43:30;;;;;;;7.57;1.40;;;26.90;99.90;;;;;;5009387;28;20066;-81
2023/08/20 10:46:16;;;;;;;6.00;1.45;;;26.90;99.80;;;;;;5005364;28;20033;-80
2023/08/20 10:48:43;;;;;;;6.55;1.48;;;26.90;99.70;;;;;;5002772;28;20092;-78
2023/08/20 10:51:12;;;;;;;9.07;1.52;;;26.90;99.80;;;;;;5003382;28;20014;-79
2023/08/20 10:53:39;;;;;;;7.00;1.48;;;26.90;99.80;;;;;;5018161;28;20176;-78
2023/08/20 10:56:13;;;;;;;6.10;1.30;;;26.90;99.50;;;;;;5003927;28;20036;-79
2023/08/20 10:58:42;;;;;;;4.73;0.87;;;27.00;98.90;;;;;;5007146;28;20041;-78
2023/08/20 11:01:21;;;;;;;6.05;1.20;;;26.90;98.60;;;;;;5015556;28;20054;-79
2023/08/20 11:03:49;;;;;;;5.70;1.20;;;27.00;98.50;;;;;;5008026;28;20105;-77
2023/08/20 11:06:16;;;;;;;7.40;1.35;;;27.10;98.00;;;;;;5010812;28;20027;-78
2023/08/20 11:08:42;;;;;;;3.67;0.85;;;27.10;97.90;;;;;;5004186;28;20031;-79
2023/08/20 11:11:08;;;;;;;5.93;1.42;;;27.20;97.30;;;;;;5012584;28;20045;-78
2023/08/20 11:13:35;;;;;;;4.28;1.00;;;27.30;97.00;;;;;;5001701;28;20029;-78
2023/08/20 11:16:06;;;;;;;5.93;0.90;;;27.40;96.80;;;;;;5005973;28;20018;-82
2023/08/20 11:18:34;;;;;;;4.90;1.00;;;27.50;96.50;;;;;;5011467;28;20672;-79
2023/08/20 11:21:01;;;;;;;4.88;1.30;;;27.60;96.10;;;;;;5034164;28;20030;-79
2023/08/20 11:23:27;;;;;;;5.78;1.27;;;27.70;95.70;;;;;;5020071;28;20521;-79
2023/08/20 11:25:53;;;;;;;3.75;1.15;;;27.70;95.30;;;;;;5012573;28;20027;-79
2023/08/20 11:28:19;;;;;;;6.63;1.20;;;27.70;95.10;;;;;;5006779;28;20110;-77
2023/08/20 11:30:46;;;;;;;5.05;0.90;;;27.70;94.50;;;;;;4998959;28;20370;-75
2023/08/20 11:33:12;;;;;;;6.45;1.20;;;27.70;94.30;;;;;;5004463;28;20492;-76
2023/08/20 11:35:38;;;;;;;4.57;1.00;;;27.80;94.30;;;;;;4999110;28;20049;-76
2023/08/20 11:38:04;;;;;;;3.40;0.90;;;27.90;93.60;;;;;;4995960;28;20706;-76
2023/08/20 11:40:30;;;;;;;4.20;0.85;;;27.80;92.10;;;;;;4996424;28;20074;-75
2023/08/20 11:42:56;;;;;;;5.38;1.15;;;27.70;92.20;;;;;;4996441;28;20426;-75
2023/08/20 11:45:21;;;;;;;4.28;1.00;;;27.60;92.40;;;;;;5002849;28;20038;-76
2023/08/20 11:47:47;;;;;;;5.25;0.82;;;27.70;92.20;;;;;;4991789;28;20050;-76
2023/08/20 11:50:12;;;;;;;6.10;1.10;;;27.80;91.90;;;;;;4991642;28;20030;-75
2023/08/20 11:52:41;;;;;;;4.28;0.90;;;27.90;91.50;;;;;;4991377;28;20034;-73
2023/08/20 11:55:07;;;;;;;2.65;0.90;;;28.00;90.60;;;;;;4998544;28;20330;-80
2023/08/20 11:57:33;;;;;;;6.00;1.20;;;28.00;90.30;;;;;;5010456;28;20037;-79
2023/08/20 12:00:10;;;;;;;4.40;0.82;;;28.10;90.40;;;;;;5002238;28;20529;-79
2023/08/20 12:02:36;;;;;;;3.67;0.88;;;28.20;89.20;;;;;;5003418;28;20029;-79
2023/08/20 12:05:02;;;;;;;3.58;1.02;;;28.20;88.90;;;;;;5013425;28;20014;-78
2023/08/20 12:07:29;;;;;;;6.55;0.95;;;28.30;87.80;;;;;;4990281;28;20022;-77
2023/08/20 12:09:55;;;;;;;2.65;0.82;;;28.20;86.60;;;;;;4996041;28;20520;-77
2023/08/20 12:12:22;;;;;;;3.63;1.00;;;28.30;86.40;;;;;;4996149;28;20058;-76
2023/08/20 12:14:48;;;;;;;4.97;1.20;;;28.30;86.40;;;;;;4992054;28;20548;-77
2023/08/20 12:17:18;;;;;;;6.63;1.20;;;28.30;85.60;;;;;;5002882;28;20056;-76
2023/08/20 12:19:45;;;;;;;4.38;0.88;;;28.30;83.50;;;;;;4994883;28;20040;-76
2023/08/20 12:22:10;;;;;;;6.03;1.13;;;28.10;83.40;;;;;;4997032;28;20022;-76
2023/08/20 12:24:36;;;;;;;4.20;1.10;;;27.90;83.80;;;;;;4991007;28;20019;-76
2023/08/20 12:27:03;;;;;;;4.53;1.40;;;27.90;84.70;;;;;;4995239;28;20026;-75
2023/08/20 12:29:29;;;;;;;5.55;1.15;;;27.90;84.90;;;;;;4993889;28;20026;-75
2023/08/20 12:31:54;;;;;;;4.65;1.17;;;27.80;83.60;;;;;;4991778;28;20555;-75
2023/08/20 12:34:21;;;;;;;3.72;0.85;;;27.70;83.70;;;;;;4993039;28;20363;-74
2023/08/20 12:36:48;;;;;;;4.60;1.00;;;27.60;83.80;;;;;;4991116;28;20435;-75
2023/08/20 12:39:14;;;;;;;4.85;1.10;;;27.50;84.30;;;;;;4995231;28;20110;-75